sensor_id;sensor_type;location;lat;lon;timestamp;P1;durP1;ratioP1;P2;durP2;ratioP2
24521;SDS011;12680;57.804;12.190;2023-03-14T00:00:15;14.55;;;3.33;;
24521;SDS011;12680;57.804;12.190;2023-03-14T00:02:43;14.65;;;2.17;;
24521;SDS011;12680;57.804;12.190;2023-03-14T00:05:10;23.63;;;4.30;;
24521;SDS011;12680;57.804;12.190;2023-03-14T00:07:37;23.83;;;3.40;;
24521;SDS011;12680;57.804;12.190;2023-03-14T00:10:07;22.52;;;2.90;;
24521;SDS011;12680;57.804;12.190;2023-03-14T00:12:36;16.45;;;2.72;;
24521;SDS011;12680;57.804;12.190;2023-03-14T00:15:03;14.68;;;3.15;;
24521;SDS011;12680;57.804;12.190;2023-03-14T00:17:33;16.27;;;3.15;;
24521;SDS011;12680;57.804;12.190;2023-03-14T00:20:01;17.23;;;3.25;;
24521;SDS011;12680;57.804;12.190;2023-03-14T00:22:38;18.92;;;2.97;;
24521;SDS011;12680;57.804;12.190;2023-03-14T00:25:06;12.27;;;2.35;;
24521;SDS011;12680;57.804;12.190;2023-03-14T00:27:35;14.10;;;2.95;;
24521;SDS011;12680;57.804;12.190;2023-03-14T00:30:03;11.15;;;2.22;;
24521;SDS011;12680;57.804;12.190;2023-03-14T00:32:31;19.75;;;2.92;;
24521;SDS011;12680;57.804;12.190;2023-03-14T00:34:58;12.77;;;2.13;;
24521;SDS011;12680;57.804;12.190;2023-03-14T00:37:27;23.45;;;3.15;;
24521;SDS011;12680;57.804;12.190;2023-03-14T00:39:54;14.50;;;2.50;;
24521;SDS011;12680;57.804;12.190;2023-03-14T00:42:21;19.15;;;2.80;;
24521;SDS011;12680;57.804;12.190;2023-03-14T00:44:50;17.70;;;2.58;;
24521;SDS011;12680;57.804;12.190;2023-03-14T00:47:17;22.10;;;2.88;;
24521;SDS011;12680;57.804;12.190;2023-03-14T00:49:44;16.10;;;2.80;;
24521;SDS011;12680;57.804;12.190;2023-03-14T00:52:11;14.13;;;2.28;;
24521;SDS011;12680;57.804;12.190;2023-03-14T00:54:38;17.48;;;2.42;;
24521;SDS011;12680;57.804;12.190;2023-03-14T00:57:05;20.13;;;2.15;;
24521;SDS011;12680;57.804;12.190;2023-03-14T00:59:32;10.38;;;2.83;;
24521;SDS011;12680;57.804;12.190;2023-03-14T01:01:59;16.33;;;2.75;;
24521;SDS011;12680;57.804;12.190;2023-03-14T01:04:26;15.55;;;2.40;;
24521;SDS011;12680;57.804;12.190;2023-03-14T01:06:53;18.38;;;2.60;;
24521;SDS011;12680;57.804;12.190;2023-03-14T01:09:20;23.45;;;2.88;;
24521;SDS011;12680;57.804;12.190;2023-03-14T01:11:47;13.50;;;2.10;;
24521;SDS011;12680;57.804;12.190;2023-03-14T01:14:15;18.88;;;3.17;;
24521;SDS011;12680;57.804;12.190;2023-03-14T01:16:42;17.95;;;2.95;;
24521;SDS011;12680;57.804;12.190;2023-03-14T01:19:09;18.38;;;3.03;;
24521;SDS011;12680;57.804;12.190;2023-03-14T01:21:36;22.48;;;3.55;;
24521;SDS011;12680;57.804;12.190;2023-03-14T01:24:03;17.35;;;2.95;;
24521;SDS011;12680;57.804;12.190;2023-03-14T01:26:32;14.20;;;2.63;;
24521;SDS011;12680;57.804;12.190;2023-03-14T01:29:01;17.98;;;2.90;;
24521;SDS011;12680;57.804;12.190;2023-03-14T01:31:29;14.00;;;2.85;;
24521;SDS011;12680;57.804;12.190;2023-03-14T01:33:56;22.02;;;2.80;;
24521;SDS011;12680;57.804;12.190;2023-03-14T01:36:23;26.00;;;3.20;;
24521;SDS011;12680;57.804;12.190;2023-03-14T01:38:50;18.92;;;3.60;;
24521;SDS011;12680;57.804;12.190;2023-03-14T01:41:18;14.00;;;2.80;;
24521;SDS011;12680;57.804;12.190;2023-03-14T01:43:48;15.50;;;2.80;;
24521;SDS011;12680;57.804;12.190;2023-03-14T01:46:48;25.42;;;4.38;;
24521;SDS011;12680;57.804;12.190;2023-03-14T01:57:11;19.88;;;3.00;;
24521;SDS011;12680;57.804;12.190;2023-03-14T01:59:45;17.30;;;2.92;;
24521;SDS011;12680;57.804;12.190;2023-03-14T02:02:15;16.73;;;2.70;;
24521;SDS011;12680;57.804;12.190;2023-03-14T02:04:43;15.25;;;2.72;;
24521;SDS011;12680;57.804;12.190;2023-03-14T02:09:48;24.50;;;3.42;;
24521;SDS011;12680;57.804;12.190;2023-03-14T02:12:16;16.20;;;2.55;;
24521;SDS011;12680;57.804;12.190;2023-03-14T02:14:47;17.40;;;3.03;;
24521;SDS011;12680;57.804;12.190;2023-03-14T02:17:16;15.40;;;2.63;;
24521;SDS011;12680;57.804;12.190;2023-03-14T02:22:11;8.98;;;1.83;;
24521;SDS011;12680;57.804;12.190;2023-03-14T02:27:13;11.48;;;2.35;;
24521;SDS011;12680;57.804;12.190;2023-03-14T02:30:25;9.40;;;2.42;;
24521;SDS011;12680;57.804;12.190;2023-03-14T02:32:41;14.45;;;2.58;;
24521;SDS011;12680;57.804;12.190;2023-03-14T02:35:14;11.25;;;2.55;;
24521;SDS011;12680;57.804;12.190;2023-03-14T02:37:49;12.32;;;2.60;;
24521;SDS011;12680;57.804;12.190;2023-03-14T02:40:18;10.85;;;2.05;;
24521;SDS011;12680;57.804;12.190;2023-03-14T02:42:45;12.75;;;2.83;;
24521;SDS011;12680;57.804;12.190;2023-03-14T02:47:43;10.90;;;2.35;;
24521;SDS011;12680;57.804;12.190;2023-03-14T02:50:17;14.00;;;2.30;;
24521;SDS011;12680;57.804;12.190;2023-03-14T02:52:47;13.45;;;2.65;;
24521;SDS011;12680;57.804;12.190;2023-03-14T02:55:19;16.38;;;3.33;;
24521;SDS011;12680;57.804;12.190;2023-03-14T02:57:47;11.13;;;2.22;;
24521;SDS011;12680;57.804;12.190;2023-03-14T03:00:14;14.13;;;2.33;;
24521;SDS011;12680;57.804;12.190;2023-03-14T03:02:41;28.60;;;3.70;;
24521;SDS011;12680;57.804;12.190;2023-03-14T03:05:08;12.13;;;2.80;;
24521;SDS011;12680;57.804;12.190;2023-03-14T03:07:35;13.75;;;2.22;;
24521;SDS011;12680;57.804;12.190;2023-03-14T03:10:02;15.35;;;2.58;;
24521;SDS011;12680;57.804;12.190;2023-03-14T03:12:29;12.77;;;2.20;;
24521;SDS011;12680;57.804;12.190;2023-03-14T03:14:56;12.18;;;2.22;;
24521;SDS011;12680;57.804;12.190;2023-03-14T03:17:23;17.05;;;3.65;;
24521;SDS011;12680;57.804;12.190;2023-03-14T03:19:50;20.50;;;2.97;;
24521;SDS011;12680;57.804;12.190;2023-03-14T03:22:17;23.85;;;3.45;;
24521;SDS011;12680;57.804;12.190;2023-03-14T03:24:44;16.02;;;2.30;;
24521;SDS011;12680;57.804;12.190;2023-03-14T03:27:11;8.90;;;1.65;;
24521;SDS011;12680;57.804;12.190;2023-03-14T03:29:38;13.20;;;2.03;;
24521;SDS011;12680;57.804;12.190;2023-03-14T03:32:05;16.50;;;2.47;;
24521;SDS011;12680;57.804;12.190;2023-03-14T03:34:32;14.35;;;2.35;;
24521;SDS011;12680;57.804;12.190;2023-03-14T03:36:59;12.88;;;2.03;;
24521;SDS011;12680;57.804;12.190;2023-03-14T03:39:26;12.15;;;2.35;;
24521;SDS011;12680;57.804;12.190;2023-03-14T03:41:53;10.77;;;1.92;;
24521;SDS011;12680;57.804;12.190;2023-03-14T03:44:19;24.63;;;3.08;;
24521;SDS011;12680;57.804;12.190;2023-03-14T03:46:46;17.58;;;2.00;;
24521;SDS011;12680;57.804;12.190;2023-03-14T03:49:14;15.13;;;2.10;;
24521;SDS011;12680;57.804;12.190;2023-03-14T03:51:44;17.38;;;2.17;;
24521;SDS011;12680;57.804;12.190;2023-03-14T03:54:11;9.77;;;2.10;;
24521;SDS011;12680;57.804;12.190;2023-03-14T03:56:40;15.85;;;2.47;;
24521;SDS011;12680;57.804;12.190;2023-03-14T03:59:14;23.67;;;2.50;;
24521;SDS011;12680;57.804;12.190;2023-03-14T04:01:42;18.05;;;2.42;;
24521;SDS011;12680;57.804;12.190;2023-03-14T04:04:10;19.42;;;2.85;;
24521;SDS011;12680;57.804;12.190;2023-03-14T04:06:37;18.45;;;2.30;;
24521;SDS011;12680;57.804;12.190;2023-03-14T04:09:08;10.02;;;1.95;;
24521;SDS011;12680;57.804;12.190;2023-03-14T04:11:39;21.08;;;2.65;;
24521;SDS011;12680;57.804;12.190;2023-03-14T04:14:07;14.82;;;2.38;;
24521;SDS011;12680;57.804;12.190;2023-03-14T04:16:43;9.38;;;1.48;;
24521;SDS011;12680;57.804;12.190;2023-03-14T04:19:11;9.13;;;1.63;;
24521;SDS011;12680;57.804;12.190;2023-03-14T04:21:38;16.23;;;2.88;;
24521;SDS011;12680;57.804;12.190;2023-03-14T04:24:12;14.68;;;2.10;;
24521;SDS011;12680;57.804;12.190;2023-03-14T04:26:39;12.15;;;1.83;;
24521;SDS011;12680;57.804;12.190;2023-03-14T04:29:10;14.30;;;1.90;;
24521;SDS011;12680;57.804;12.190;2023-03-14T04:31:39;9.95;;;1.88;;
24521;SDS011;12680;57.804;12.190;2023-03-14T04:34:06;9.35;;;1.92;;
24521;SDS011;12680;57.804;12.190;2023-03-14T04:36:33;16.10;;;2.47;;
24521;SDS011;12680;57.804;12.190;2023-03-14T04:39:03;8.68;;;1.90;;
24521;SDS011;12680;57.804;12.190;2023-03-14T04:41:31;14.98;;;1.95;;
24521;SDS011;12680;57.804;12.190;2023-03-14T04:44:00;20.13;;;2.95;;
24521;SDS011;12680;57.804;12.190;2023-03-14T04:46:28;11.98;;;2.15;;
24521;SDS011;12680;57.804;12.190;2023-03-14T04:48:59;17.35;;;2.80;;
24521;SDS011;12680;57.804;12.190;2023-03-14T04:51:31;15.07;;;2.13;;
24521;SDS011;12680;57.804;12.190;2023-03-14T04:56:25;11.88;;;1.60;;
24521;SDS011;12680;57.804;12.190;2023-03-14T04:58:56;14.20;;;2.00;;
24521;SDS011;12680;57.804;12.190;2023-03-14T05:01:23;11.25;;;2.08;;
24521;SDS011;12680;57.804;12.190;2023-03-14T05:03:50;18.60;;;3.35;;
24521;SDS011;12680;57.804;12.190;2023-03-14T05:06:17;15.70;;;2.08;;
24521;SDS011;12680;57.804;12.190;2023-03-14T05:08:44;14.07;;;2.28;;
24521;SDS011;12680;57.804;12.190;2023-03-14T05:11:11;13.75;;;2.35;;
24521;SDS011;12680;57.804;12.190;2023-03-14T05:13:39;14.60;;;2.30;;
24521;SDS011;12680;57.804;12.190;2023-03-14T05:16:07;16.42;;;2.13;;
24521;SDS011;12680;57.804;12.190;2023-03-14T05:18:36;14.15;;;2.17;;
24521;SDS011;12680;57.804;12.190;2023-03-14T05:21:05;10.02;;;1.60;;
24521;SDS011;12680;57.804;12.190;2023-03-14T05:23:32;7.72;;;1.85;;
24521;SDS011;12680;57.804;12.190;2023-03-14T05:26:00;12.60;;;1.83;;
24521;SDS011;12680;57.804;12.190;2023-03-14T05:28:27;8.73;;;1.45;;
24521;SDS011;12680;57.804;12.190;2023-03-14T05:30:54;8.90;;;1.60;;
24521;SDS011;12680;57.804;12.190;2023-03-14T05:33:21;8.77;;;1.55;;
24521;SDS011;12680;57.804;12.190;2023-03-14T05:35:48;14.63;;;2.63;;
24521;SDS011;12680;57.804;12.190;2023-03-14T05:38:16;7.47;;;2.40;;
24521;SDS011;12680;57.804;12.190;2023-03-14T05:40:44;12.50;;;1.83;;
24521;SDS011;12680;57.804;12.190;2023-03-14T05:43:11;11.80;;;1.90;;
24521;SDS011;12680;57.804;12.190;2023-03-14T05:45:38;9.10;;;1.77;;
24521;SDS011;12680;57.804;12.190;2023-03-14T05:48:05;16.50;;;2.35;;
24521;SDS011;12680;57.804;12.190;2023-03-14T05:50:32;17.30;;;2.22;;
24521;SDS011;12680;57.804;12.190;2023-03-14T05:52:59;10.85;;;2.03;;
24521;SDS011;12680;57.804;12.190;2023-03-14T05:55:26;10.25;;;1.58;;
24521;SDS011;12680;57.804;12.190;2023-03-14T05:57:54;14.85;;;2.45;;
24521;SDS011;12680;57.804;12.190;2023-03-14T06:00:22;12.98;;;2.33;;
24521;SDS011;12680;57.804;12.190;2023-03-14T06:02:49;15.45;;;2.83;;
24521;SDS011;12680;57.804;12.190;2023-03-14T06:05:16;22.95;;;3.08;;
24521;SDS011;12680;57.804;12.190;2023-03-14T06:07:43;15.73;;;2.63;;
24521;SDS011;12680;57.804;12.190;2023-03-14T06:10:10;12.63;;;2.35;;
24521;SDS011;12680;57.804;12.190;2023-03-14T06:12:40;16.38;;;2.70;;
24521;SDS011;12680;57.804;12.190;2023-03-14T06:15:12;14.32;;;2.13;;
24521;SDS011;12680;57.804;12.190;2023-03-14T06:17:39;32.80;;;2.97;;
24521;SDS011;12680;57.804;12.190;2023-03-14T06:20:06;14.55;;;2.95;;
24521;SDS011;12680;57.804;12.190;2023-03-14T06:22:33;20.40;;;2.70;;
24521;SDS011;12680;57.804;12.190;2023-03-14T06:25:00;16.75;;;2.75;;
24521;SDS011;12680;57.804;12.190;2023-03-14T06:27:27;18.48;;;3.08;;
24521;SDS011;12680;57.804;12.190;2023-03-14T06:29:54;18.70;;;2.95;;
24521;SDS011;12680;57.804;12.190;2023-03-14T06:32:20;18.40;;;2.95;;
24521;SDS011;12680;57.804;12.190;2023-03-14T06:34:47;22.40;;;2.60;;
24521;SDS011;12680;57.804;12.190;2023-03-14T06:37:14;13.50;;;2.53;;
24521;SDS011;12680;57.804;12.190;2023-03-14T06:39:41;16.15;;;3.70;;
24521;SDS011;12680;57.804;12.190;2023-03-14T06:42:10;28.27;;;3.60;;
24521;SDS011;12680;57.804;12.190;2023-03-14T06:44:37;20.75;;;3.50;;
24521;SDS011;12680;57.804;12.190;2023-03-14T06:47:03;18.83;;;3.10;;
24521;SDS011;12680;57.804;12.190;2023-03-14T06:49:30;14.48;;;2.55;;
24521;SDS011;12680;57.804;12.190;2023-03-14T06:51:57;18.67;;;2.45;;
24521;SDS011;12680;57.804;12.190;2023-03-14T06:54:24;20.75;;;3.28;;
24521;SDS011;12680;57.804;12.190;2023-03-14T06:56:50;19.40;;;2.83;;
24521;SDS011;12680;57.804;12.190;2023-03-14T06:59:17;16.83;;;2.63;;
24521;SDS011;12680;57.804;12.190;2023-03-14T07:01:44;14.73;;;2.83;;
24521;SDS011;12680;57.804;12.190;2023-03-14T07:04:11;15.50;;;2.45;;
24521;SDS011;12680;57.804;12.190;2023-03-14T07:06:37;12.50;;;2.50;;
24521;SDS011;12680;57.804;12.190;2023-03-14T07:09:05;17.45;;;2.78;;
24521;SDS011;12680;57.804;12.190;2023-03-14T07:11:33;17.17;;;2.83;;
24521;SDS011;12680;57.804;12.190;2023-03-14T07:14:00;14.23;;;2.92;;
24521;SDS011;12680;57.804;12.190;2023-03-14T07:16:27;18.83;;;2.53;;
24521;SDS011;12680;57.804;12.190;2023-03-14T07:18:57;15.52;;;3.55;;
24521;SDS011;12680;57.804;12.190;2023-03-14T07:21:24;18.73;;;2.88;;
24521;SDS011;12680;57.804;12.190;2023-03-14T07:23:51;15.50;;;2.63;;
24521;SDS011;12680;57.804;12.190;2023-03-14T07:26:17;23.48;;;2.28;;
24521;SDS011;12680;57.804;12.190;2023-03-14T07:28:44;20.70;;;2.58;;
24521;SDS011;12680;57.804;12.190;2023-03-14T07:31:11;11.95;;;2.30;;
24521;SDS011;12680;57.804;12.190;2023-03-14T07:33:38;16.08;;;2.38;;
24521;SDS011;12680;57.804;12.190;2023-03-14T07:36:05;20.13;;;2.13;;
24521;SDS011;12680;57.804;12.190;2023-03-14T07:38:32;13.38;;;2.50;;
24521;SDS011;12680;57.804;12.190;2023-03-14T07:40:59;9.15;;;2.05;;
24521;SDS011;12680;57.804;12.190;2023-03-14T07:43:31;9.80;;;2.33;;
24521;SDS011;12680;57.804;12.190;2023-03-14T07:45:59;13.48;;;2.05;;
24521;SDS011;12680;57.804;12.190;2023-03-14T07:48:26;18.63;;;2.13;;
24521;SDS011;12680;57.804;12.190;2023-03-14T07:50:54;17.35;;;2.80;;
24521;SDS011;12680;57.804;12.190;2023-03-14T07:53:21;7.38;;;1.83;;
24521;SDS011;12680;57.804;12.190;2023-03-14T07:55:50;14.63;;;2.20;;
24521;SDS011;12680;57.804;12.190;2023-03-14T07:58:20;12.10;;;1.55;;
24521;SDS011;12680;57.804;12.190;2023-03-14T08:00:48;11.57;;;1.60;;
24521;SDS011;12680;57.804;12.190;2023-03-14T08:03:15;13.57;;;2.30;;
24521;SDS011;12680;57.804;12.190;2023-03-14T08:05:42;10.70;;;2.10;;
24521;SDS011;12680;57.804;12.190;2023-03-14T08:08:10;8.63;;;1.77;;
24521;SDS011;12680;57.804;12.190;2023-03-14T08:10:37;17.63;;;2.25;;
24521;SDS011;12680;57.804;12.190;2023-03-14T08:13:04;8.52;;;1.88;;
24521;SDS011;12680;57.804;12.190;2023-03-14T08:15:31;8.35;;;2.00;;
24521;SDS011;12680;57.804;12.190;2023-03-14T08:17:58;9.88;;;1.52;;
24521;SDS011;12680;57.804;12.190;2023-03-14T08:20:26;10.98;;;1.67;;
24521;SDS011;12680;57.804;12.190;2023-03-14T08:23:00;10.32;;;1.40;;
24521;SDS011;12680;57.804;12.190;2023-03-14T08:25:27;13.45;;;2.03;;
24521;SDS011;12680;57.804;12.190;2023-03-14T08:27:55;8.75;;;1.45;;
24521;SDS011;12680;57.804;12.190;2023-03-14T08:30:22;6.65;;;1.80;;
24521;SDS011;12680;57.804;12.190;2023-03-14T08:32:49;14.13;;;2.03;;
24521;SDS011;12680;57.804;12.190;2023-03-14T08:35:16;16.13;;;2.05;;
24521;SDS011;12680;57.804;12.190;2023-03-14T08:37:43;11.27;;;1.60;;
24521;SDS011;12680;57.804;12.190;2023-03-14T08:40:10;11.70;;;2.03;;
24521;SDS011;12680;57.804;12.190;2023-03-14T08:42:38;8.82;;;1.88;;
24521;SDS011;12680;57.804;12.190;2023-03-14T08:45:06;4.55;;;1.65;;
24521;SDS011;12680;57.804;12.190;2023-03-14T08:47:34;11.05;;;1.60;;
24521;SDS011;12680;57.804;12.190;2023-03-14T08:50:00;11.93;;;1.70;;
24521;SDS011;12680;57.804;12.190;2023-03-14T08:52:27;15.75;;;2.03;;
24521;SDS011;12680;57.804;12.190;2023-03-14T08:54:54;7.38;;;1.90;;
24521;SDS011;12680;57.804;12.190;2023-03-14T08:57:21;11.27;;;1.83;;
24521;SDS011;12680;57.804;12.190;2023-03-14T08:59:48;14.52;;;2.00;;
24521;SDS011;12680;57.804;12.190;2023-03-14T09:02:14;9.82;;;2.10;;
24521;SDS011;12680;57.804;12.190;2023-03-14T09:04:41;11.30;;;1.85;;
24521;SDS011;12680;57.804;12.190;2023-03-14T09:07:08;12.43;;;2.53;;
24521;SDS011;12680;57.804;12.190;2023-03-14T09:09:34;7.93;;;1.60;;
24521;SDS011;12680;57.804;12.190;2023-03-14T09:12:01;9.35;;;1.50;;
24521;SDS011;12680;57.804;12.190;2023-03-14T09:14:28;9.77;;;1.33;;
24521;SDS011;12680;57.804;12.190;2023-03-14T09:16:55;7.97;;;1.60;;
24521;SDS011;12680;57.804;12.190;2023-03-14T09:19:21;10.55;;;1.83;;
24521;SDS011;12680;57.804;12.190;2023-03-14T09:21:48;11.63;;;2.13;;
24521;SDS011;12680;57.804;12.190;2023-03-14T09:24:15;7.20;;;1.65;;
24521;SDS011;12680;57.804;12.190;2023-03-14T09:26:43;9.32;;;1.15;;
24521;SDS011;12680;57.804;12.190;2023-03-14T09:29:10;8.75;;;1.58;;
24521;SDS011;12680;57.804;12.190;2023-03-14T09:31:36;4.82;;;1.35;;
24521;SDS011;12680;57.804;12.190;2023-03-14T09:34:03;8.43;;;1.50;;
24521;SDS011;12680;57.804;12.190;2023-03-14T09:36:30;9.23;;;1.20;;
24521;SDS011;12680;57.804;12.190;2023-03-14T09:38:57;5.43;;;1.30;;
24521;SDS011;12680;57.804;12.190;2023-03-14T09:41:31;6.63;;;1.10;;
24521;SDS011;12680;57.804;12.190;2023-03-14T09:44:05;4.95;;;1.40;;
24521;SDS011;12680;57.804;12.190;2023-03-14T09:46:33;7.78;;;1.80;;
24521;SDS011;12680;57.804;12.190;2023-03-14T09:49:08;9.68;;;1.08;;
24521;SDS011;12680;57.804;12.190;2023-03-14T09:51:57;5.93;;;0.95;;
24521;SDS011;12680;57.804;12.190;2023-03-14T09:54:34;7.40;;;0.60;;
24521;SDS011;12680;57.804;12.190;2023-03-14T09:57:04;7.32;;;1.15;;
24521;SDS011;12680;57.804;12.190;2023-03-14T09:59:32;10.65;;;1.50;;
24521;SDS011;12680;57.804;12.190;2023-03-14T10:02:01;6.07;;;1.08;;
24521;SDS011;12680;57.804;12.190;2023-03-14T10:04:44;4.82;;;1.00;;
24521;SDS011;12680;57.804;12.190;2023-03-14T10:07:16;7.53;;;0.85;;
24521;SDS011;12680;57.804;12.190;2023-03-14T10:09:47;6.70;;;0.95;;
24521;SDS011;12680;57.804;12.190;2023-03-14T10:12:16;4.35;;;0.80;;
24521;SDS011;12680;57.804;12.190;2023-03-14T10:14:51;3.33;;;1.05;;
24521;SDS011;12680;57.804;12.190;2023-03-14T10:17:20;3.75;;;1.08;;
24521;SDS011;12680;57.804;12.190;2023-03-14T10:19:50;3.30;;;0.90;;
24521;SDS011;12680;57.804;12.190;2023-03-14T10:22:31;7.13;;;1.25;;
24521;SDS011;12680;57.804;12.190;2023-03-14T10:25:03;3.15;;;1.10;;
24521;SDS011;12680;57.804;12.190;2023-03-14T10:27:33;3.50;;;0.77;;
24521;SDS011;12680;57.804;12.190;2023-03-14T10:30:02;3.95;;;1.10;;
24521;SDS011;12680;57.804;12.190;2023-03-14T10:32:36;6.25;;;1.25;;
24521;SDS011;12680;57.804;12.190;2023-03-14T10:35:11;3.10;;;0.90;;
24521;SDS011;12680;57.804;12.190;2023-03-14T10:37:53;9.57;;;0.93;;
24521;SDS011;12680;57.804;12.190;2023-03-14T10:40:27;7.55;;;0.90;;
24521;SDS011;12680;57.804;12.190;2023-03-14T10:43:00;4.43;;;0.80;;
24521;SDS011;12680;57.804;12.190;2023-03-14T10:45:37;2.78;;;0.90;;
24521;SDS011;12680;57.804;12.190;2023-03-14T10:48:13;6.03;;;1.08;;
24521;SDS011;12680;57.804;12.190;2023-03-14T10:50:53;3.30;;;0.90;;
24521;SDS011;12680;57.804;12.190;2023-03-14T10:53:22;3.85;;;1.02;;
24521;SDS011;12680;57.804;12.190;2023-03-14T10:55:52;8.30;;;1.40;;
24521;SDS011;12680;57.804;12.190;2023-03-14T10:58:28;5.13;;;0.98;;
24521;SDS011;12680;57.804;12.190;2023-03-14T11:07:12;3.05;;;0.90;;
24521;SDS011;12680;57.804;12.190;2023-03-14T11:09:24;6.43;;;1.27;;
24521;SDS011;12680;57.804;12.190;2023-03-14T11:11:59;5.18;;;1.05;;
24521;SDS011;12680;57.804;12.190;2023-03-14T11:14:54;3.97;;;1.20;;
24521;SDS011;12680;57.804;12.190;2023-03-14T11:17:34;6.88;;;0.85;;
24521;SDS011;12680;57.804;12.190;2023-03-14T11:28:37;3.75;;;0.73;;
24521;SDS011;12680;57.804;12.190;2023-03-14T11:33:55;1.40;;;0.70;;
24521;SDS011;12680;57.804;12.190;2023-03-14T11:39:16;1.80;;;0.80;;
24521;SDS011;12680;57.804;12.190;2023-03-14T11:41:49;9.70;;;1.25;;
24521;SDS011;12680;57.804;12.190;2023-03-14T11:44:24;2.65;;;0.70;;
24521;SDS011;12680;57.804;12.190;2023-03-14T11:49:45;1.10;;;0.40;;
24521;SDS011;12680;57.804;12.190;2023-03-14T11:52:19;4.03;;;0.80;;
24521;SDS011;12680;57.804;12.190;2023-03-14T11:55:01;1.17;;;0.50;;
24521;SDS011;12680;57.804;12.190;2023-03-14T11:57:36;4.37;;;0.60;;
24521;SDS011;12680;57.804;12.190;2023-03-14T12:00:12;3.10;;;0.73;;
24521;SDS011;12680;57.804;12.190;2023-03-14T12:02:58;1.08;;;0.45;;
24521;SDS011;12680;57.804;12.190;2023-03-14T12:08:39;1.95;;;0.60;;
24521;SDS011;12680;57.804;12.190;2023-03-14T12:11:18;1.42;;;0.80;;
24521;SDS011;12680;57.804;12.190;2023-03-14T12:13:57;0.45;;;0.35;;
24521;SDS011;12680;57.804;12.190;2023-03-14T12:16:37;2.95;;;0.63;;
24521;SDS011;12680;57.804;12.190;2023-03-14T12:19:49;1.90;;;0.38;;
24521;SDS011;12680;57.804;12.190;2023-03-14T12:21:59;2.08;;;0.45;;
24521;SDS011;12680;57.804;12.190;2023-03-14T12:24:46;0.73;;;0.47;;
24521;SDS011;12680;57.804;12.190;2023-03-14T12:30:23;0.60;;;0.40;;
24521;SDS011;12680;57.804;12.190;2023-03-14T12:38:12;1.83;;;0.63;;
24521;SDS011;12680;57.804;12.190;2023-03-14T12:43:31;0.90;;;0.50;;
24521;SDS011;12680;57.804;12.190;2023-03-14T12:54:06;1.65;;;0.47;;
24521;SDS011;12680;57.804;12.190;2023-03-14T12:57:15;0.98;;;0.40;;
24521;SDS011;12680;57.804;12.190;2023-03-14T13:02:44;0.50;;;0.40;;
24521;SDS011;12680;57.804;12.190;2023-03-14T13:05:16;2.78;;;0.30;;
24521;SDS011;12680;57.804;12.190;2023-03-14T13:10:28;3.80;;;0.45;;
24521;SDS011;12680;57.804;12.190;2023-03-14T13:13:17;1.02;;;0.52;;
24521;SDS011;12680;57.804;12.190;2023-03-14T13:15:56;3.05;;;0.60;;
24521;SDS011;12680;57.804;12.190;2023-03-14T13:18:49;2.63;;;0.55;;
24521;SDS011;12680;57.804;12.190;2023-03-14T13:21:45;1.67;;;0.50;;
24521;SDS011;12680;57.804;12.190;2023-03-14T13:24:25;3.17;;;0.55;;
24521;SDS011;12680;57.804;12.190;2023-03-14T13:26:54;1.05;;;0.50;;
24521;SDS011;12680;57.804;12.190;2023-03-14T13:29:25;1.40;;;0.47;;
24521;SDS011;12680;57.804;12.190;2023-03-14T13:32:13;3.45;;;0.50;;
24521;SDS011;12680;57.804;12.190;2023-03-14T13:34:45;1.15;;;0.47;;
24521;SDS011;12680;57.804;12.190;2023-03-14T13:37:22;1.52;;;0.60;;
24521;SDS011;12680;57.804;12.190;2023-03-14T13:39:54;1.02;;;0.60;;
24521;SDS011;12680;57.804;12.190;2023-03-14T13:42:28;0.70;;;0.47;;
24521;SDS011;12680;57.804;12.190;2023-03-14T13:44:56;0.82;;;0.47;;
24521;SDS011;12680;57.804;12.190;2023-03-14T13:47:24;2.42;;;0.77;;
24521;SDS011;12680;57.804;12.190;2023-03-14T13:49:52;0.65;;;0.50;;
24521;SDS011;12680;57.804;12.190;2023-03-14T13:52:32;1.73;;;0.60;;
24521;SDS011;12680;57.804;12.190;2023-03-14T13:55:03;1.33;;;0.50;;
24521;SDS011;12680;57.804;12.190;2023-03-14T13:57:49;0.85;;;0.40;;
24521;SDS011;12680;57.804;12.190;2023-03-14T14:02:56;0.40;;;0.40;;
24521;SDS011;12680;57.804;12.190;2023-03-14T14:05:26;0.75;;;0.40;;
24521;SDS011;12680;57.804;12.190;2023-03-14T14:07:54;2.75;;;0.50;;
24521;SDS011;12680;57.804;12.190;2023-03-14T14:10:22;0.73;;;0.30;;
24521;SDS011;12680;57.804;12.190;2023-03-14T14:12:54;1.25;;;0.57;;
24521;SDS011;12680;57.804;12.190;2023-03-14T14:15:28;0.80;;;0.57;;
24521;SDS011;12680;57.804;12.190;2023-03-14T14:18:02;0.57;;;0.38;;
24521;SDS011;12680;57.804;12.190;2023-03-14T14:20:33;2.00;;;0.60;;
24521;SDS011;12680;57.804;12.190;2023-03-14T14:23:04;5.15;;;0.88;;
24521;SDS011;12680;57.804;12.190;2023-03-14T14:25:32;0.60;;;0.43;;
24521;SDS011;12680;57.804;12.190;2023-03-14T14:28:13;1.63;;;0.65;;
24521;SDS011;12680;57.804;12.190;2023-03-14T14:30:46;2.63;;;0.68;;
24521;SDS011;12680;57.804;12.190;2023-03-14T14:33:52;0.88;;;0.52;;
24521;SDS011;12680;57.804;12.190;2023-03-14T14:36:26;0.98;;;0.43;;
24521;SDS011;12680;57.804;12.190;2023-03-14T14:39:25;0.68;;;0.68;;
24521;SDS011;12680;57.804;12.190;2023-03-14T14:41:55;1.58;;;0.80;;
24521;SDS011;12680;57.804;12.190;2023-03-14T14:44:28;0.60;;;0.45;;
24521;SDS011;12680;57.804;12.190;2023-03-14T14:46:58;0.75;;;0.50;;
24521;SDS011;12680;57.804;12.190;2023-03-14T14:49:29;1.95;;;0.75;;
24521;SDS011;12680;57.804;12.190;2023-03-14T14:52:09;0.30;;;0.30;;
24521;SDS011;12680;57.804;12.190;2023-03-14T14:57:26;1.70;;;0.63;;
24521;SDS011;12680;57.804;12.190;2023-03-14T15:02:36;1.15;;;0.45;;
24521;SDS011;12680;57.804;12.190;2023-03-14T15:05:13;0.75;;;0.45;;
24521;SDS011;12680;57.804;12.190;2023-03-14T15:07:41;0.55;;;0.30;;
24521;SDS011;12680;57.804;12.190;2023-03-14T15:10:15;0.70;;;0.43;;
24521;SDS011;12680;57.804;12.190;2023-03-14T15:12:43;0.50;;;0.40;;
24521;SDS011;12680;57.804;12.190;2023-03-14T15:15:11;0.77;;;0.50;;
24521;SDS011;12680;57.804;12.190;2023-03-14T15:17:38;0.80;;;0.52;;
24521;SDS011;12680;57.804;12.190;2023-03-14T15:20:05;1.27;;;0.50;;
24521;SDS011;12680;57.804;12.190;2023-03-14T15:22:35;0.82;;;0.57;;
24521;SDS011;12680;57.804;12.190;2023-03-14T15:25:02;0.75;;;0.50;;
24521;SDS011;12680;57.804;12.190;2023-03-14T15:27:30;2.22;;;0.63;;
24521;SDS011;12680;57.804;12.190;2023-03-14T15:29:58;0.40;;;0.40;;
24521;SDS011;12680;57.804;12.190;2023-03-14T15:32:26;0.50;;;0.47;;
24521;SDS011;12680;57.804;12.190;2023-03-14T15:34:54;0.47;;;0.30;;
24521;SDS011;12680;57.804;12.190;2023-03-14T15:37:21;2.00;;;0.50;;
24521;SDS011;12680;57.804;12.190;2023-03-14T15:39:48;1.67;;;0.60;;
24521;SDS011;12680;57.804;12.190;2023-03-14T15:42:15;0.80;;;0.47;;
24521;SDS011;12680;57.804;12.190;2023-03-14T15:44:42;1.52;;;0.50;;
24521;SDS011;12680;57.804;12.190;2023-03-14T15:47:09;3.22;;;0.60;;
24521;SDS011;12680;57.804;12.190;2023-03-14T15:49:36;3.17;;;0.95;;
24521;SDS011;12680;57.804;12.190;2023-03-14T15:52:03;2.28;;;0.50;;
24521;SDS011;12680;57.804;12.190;2023-03-14T15:54:30;1.55;;;0.60;;
24521;SDS011;12680;57.804;12.190;2023-03-14T15:56:57;0.73;;;0.43;;
24521;SDS011;12680;57.804;12.190;2023-03-14T15:59:24;1.38;;;0.70;;
24521;SDS011;12680;57.804;12.190;2023-03-14T16:01:51;1.35;;;0.55;;
24521;SDS011;12680;57.804;12.190;2023-03-14T16:04:18;1.45;;;0.50;;